Airfield :
LOGIN :

Register | Disclaimer

   EN    FR    IT 

 










Legend :    VFR   Marginal VFR   IFR   Intensive IFR   Very Intensive IFR
Visi :
Ceiling :
>= 8 km
>= 3000ft
5 to 8 km
1000 to 3000 ft
1500m to 5 km
500 to 1000 ft
800 to 1500m
200 to 500 ft
< 800m
< 200 ft
Symbols :   Thunderstorms  Fog  Heavy snow  Heavy precipitations  Wind > 20 kt
SIGMETs :     Misc.  Thunderstorms  Icing  Turbulence  Mountain Waves  Volcanic Ashes







- Airport Elevation : 135 ft
- IATA code : EDI
- Download approach charts


EGPH - Edinburgh

CURRENT METAR :
  • 241520Z 06005KT 020V140 9999 FEW045 23/15 Q1017

EXPIRED METARs :
  • 241450Z 23005KT 170V270 9999 FEW045 24/14 Q1017
  • 241420Z 25005KT 130V280 9999 FEW044 24/15 Q1017
  • 241350Z 23007KT CAVOK 23/14 Q1017
  • 241320Z 25008KT 9999 FEW040 24/14 Q1017
  • 241250Z 21009KT 9999 FEW034 23/14 Q1017

TAF TAF EGPH
Valid from the 24 at 12:00 until the 25 at 12:00 UTC


241059Z 2412/2512 06005KT CAVOK
TEMPO 2500/2507 7000
PROB30 2503/2506 2000 BR BKN003
ATIS : +44 131 339 2823
No reported NOTAMs for that airfield.



MET'MAP, your aeronautical weather chart ! - Copyright ORBIFLY December 2007 - Disclaimer

ORBIFLY MET'MAP TEAM :

Programming & Development : Alexandra Zaïnal
Concept & Development : Baudouin d'Aumeries
Co-Development & Prog : Marc-Olivier Méhu
Technical & hardware support : Manuel Goepfert

Contact : metmap@orbifly.com




SOURCES & CREDITS :

   NOAA